• Join FlightAware (Why Join?)
  • Login
  • US Flag 
03:51AM EDT


 

Airport Tracker/Info


-or-


 

Live Flight TrackerFlight Track Log ✈ AFL150 ✈ 09-Dec-2013 ✈ UUEE / SVO - MUHA / HAV

Flight Track Log - Related Links

Times and Time Zones

All times are in EST time to prevent confusion due to time zone crossing. See the AFL150 flight status page for this flight to view local times or setup timezone preferences in your user account.

Time Position Orientation Groundspeed Altitude Reporting Facility
EST Latitude Longitude Course Direction KTS MPH feet Rate Location/Type
07:08AM 56.1369 5.6642 263° West 1 1 36,000  Level FlightAware UK
07:09AM 56.1291 5.5567 263° West 1 1 36,000  Level FlightAware UK
07:09AM 56.1195 5.4508 261° West 1 1 36,000  Level FlightAware UK
07:10AM 56.0951 5.2014 260° West 1 1 36,000  Level FlightAware UK
07:12AM 56.0622 4.8664 260° West 1 1 36,000  Level FlightAware UK
07:14AM 56.0219 4.4702 260° West 464 534 36,000  Level FlightAware UK
07:15AM 56.0087 4.3453 259° West 462 532 36,000  Level FlightAware UK
07:15AM 56.0009 4.2416 262° West 460 529 36,000  Level FlightAware UK
07:16AM 55.9975 4.1379 267° West 460 529 36,000  Level FlightAware UK
07:16AM 55.9876 3.9733 264° West 460 529 36,000  Level FlightAware UK
07:17AM 55.9815 3.8689 264° West 460 529 36,000  Level FlightAware UK
07:17AM 55.9744 3.7437 264° West 460 529 36,000  Level FlightAware UK
07:19AM 55.9611 3.5141 264° West 458 527 36,000  Level FlightAware UK
07:19AM 55.9548 3.4094 264° West 458 527 36,000  Level FlightAware UK
07:20AM 55.9438 3.2422 263° West 462 532 36,000  Level FlightAware UK
07:20AM 55.9356 3.1161 263° West 460 529 36,000  Level FlightAware UK
07:21AM 55.9273 2.9900 263° West 462 532 36,000  Level FlightAware UK
07:22AM 55.9139 2.7790 264° West 462 532 36,000  Level FlightAware UK
07:23AM 55.9068 2.6728 263° West 462 532 36,000  Level FlightAware UK
07:23AM 55.8995 2.5677 263° West 464 534 36,000  Level FlightAware UK
07:24AM 55.8892 2.4218 263° West 462 532 36,000  Level FlightAware UK
07:24AM 55.8873 2.2966 269° West 460 529 36,000  Level FlightAware UK
07:25AM 55.8905 2.1711 273° West 462 532 36,000  Level FlightAware UK
07:26AM 55.8930 2.0460 272° West 464 534 36,000  Level FlightAware UK
07:26AM 55.8948 1.9398 272° West 464 534 36,000  Level FlightAware UK
07:27AM 55.8969 1.8351 272° West 462 532 36,000  Level FlightAware UK
07:27AM 55.9002 1.6701 272° West 462 532 36,000  Level FlightAware UK
07:28AM 55.9023 1.5470 272° West 462 532 36,000  Level FlightAware UK
07:29AM 55.9045 1.4025 272° West 460 529 36,000  Level FlightAware UK
07:29AM 55.9061 1.2986 272° West 458 527 36,000  Level FlightAware UK
07:30AM 55.9082 1.1545 272° West 458 527 36,000  Level FlightAware UK
07:31AM 55.9107 0.9684 271° West 456 525 36,000  Level FlightAware UK
07:31AM 55.9119 0.8640 271° West 458 527 36,000  Level FlightAware UK
07:32AM 55.9133 0.7384 271° West 458 527 36,000  Level FlightAware UK
07:32AM 55.9143 0.6323 271° West 460 529 36,000  Level FlightAware UK
07:33AM 55.9158 0.4842 271° West 462 532 36,000  Level FlightAware UK
07:34AM 55.9169 0.3147 271° West 462 532 36,000  Level FlightAware UK
07:35AM 55.9184 0.0171 271° West 464 534 36,000  Level FlightAware UK
07:36AM 55.9190 -0.0892 271° West 462 532 36,000  Level FlightAware UK
07:36AM 55.9193 -0.2371 270° West 462 532 36,000  Level FlightAware UK
07:37AM 55.9196 -0.4477 270° West 462 532 36,000  Level FlightAware UK
07:38AM 55.9195 -0.5743 270° West 464 534 36,000  Level FlightAware UK
07:39AM 55.9194 -0.7844 270° West 460 529 36,000  Level FlightAware UK
07:40AM 55.9155 -0.9522 268° West 462 532 36,000  Level FlightAware UK
07:40AM 55.9066 -1.0558 261° West 462 532 36,000  Level FlightAware UK
07:41AM 55.8834 -1.1941 253° West 460 529 36,000  Level FlightAware UK
07:42AM 55.8486 -1.3267 245° Southwest 462 532 36,000  Level FlightAware UK
07:42AM 55.8186 -1.4394 245° Southwest 464 534 36,000  Level FlightAware UK
07:43AM 55.7935 -1.5334 245° Southwest 462 532 36,000  Level FlightAware UK
07:43AM 55.7683 -1.6270 244° Southwest 460 529 36,000  Level FlightAware UK
07:44AM 55.7432 -1.7205 245° Southwest 460 529 36,000  Level FlightAware UK
07:45AM 55.6981 -1.8890 245° Southwest 462 532 36,000  Level FlightAware UK
07:45AM 55.6727 -1.9830 244° Southwest 460 529 36,000  Level FlightAware UK
07:46AM 55.6424 -2.0950 244° Southwest 460 529 36,000  Level FlightAware UK
07:46AM 55.6066 -2.2261 244° Southwest 462 532 36,000  Level FlightAware UK
07:47AM 55.5810 -2.3197 244° Southwest 464 534 36,000  Level FlightAware UK
07:48AM 55.5503 -2.4311 244° Southwest 464 534 36,000  Level FlightAware UK
07:48AM 55.5142 -2.5615 244° Southwest 462 532 36,000  Level FlightAware UK
07:49AM 55.4883 -2.6544 244° Southwest 460 529 36,000  Level FlightAware UK
07:49AM 55.4574 -2.7650 244° Southwest 460 529 36,000  Level FlightAware UK
07:50AM 55.4315 -2.8578 244° Southwest 462 532 36,000  Level FlightAware UK
07:51AM 55.3948 -2.9872 244° Southwest 464 534 36,000  Level FlightAware UK
07:51AM 55.3685 -3.0801 244° Southwest 462 532 36,000  Level FlightAware UK
07:52AM 55.3423 -3.1724 243° Southwest 464 534 36,000  Level FlightAware UK
07:52AM 55.3007 -3.3181 243° Southwest 460 529 36,000  Level FlightAware UK
07:53AM 55.2533 -3.4827 243° Southwest 462 532 36,000  Level FlightAware UK
07:54AM 55.2002 -3.6656 243° Southwest 464 534 36,000  Level FlightAware UK
07:55AM 55.1735 -3.7568 243° Southwest 464 534 36,000  Level FlightAware UK
07:56AM 55.1205 -3.9380 243° Southwest 460 529 36,000  Level FlightAware UK
07:56AM 55.0888 -4.0454 243° Southwest 462 532 36,000  Level FlightAware UK
07:57AM 55.0301 -4.2435 243° Southwest 460 529 36,000  Level FlightAware UK
07:58AM 55.0031 -4.3334 242° Southwest 462 532 36,000  Level FlightAware UK
07:59AM 54.9651 -4.4592 242° Southwest 464 534 36,000  Level FlightAware UK
07:59AM 54.9219 -4.6028 242° Southwest 460 529 36,000  Level FlightAware UK
08:00AM 54.8839 -4.7283 242° Southwest 462 532 36,000  Level FlightAware UK
08:01AM 54.8565 -4.8178 242° Southwest 464 534 36,000  Level FlightAware UK
08:01AM 54.8291 -4.9071 242° Southwest 462 532 36,000  Level FlightAware UK
08:02AM 54.7961 -5.0138 242° Southwest 462 532 36,000  Level FlightAware UK
08:02AM 54.7634 -5.1204 242° Southwest 460 529 36,000  Level FlightAware UK
08:03AM 54.7360 -5.2091 242° Southwest 460 529 36,000  Level FlightAware UK
08:03AM 54.7027 -5.3153 242° Southwest 462 532 36,000  Level FlightAware UK
08:04AM 54.6696 -5.4211 242° Southwest 462 532 36,000  Level FlightAware UK
08:05AM 54.6418 -5.5098 242° Southwest 460 529 36,000  Level FlightAware UK
08:05AM 54.6026 -5.6339 241° Southwest 464 534 36,000  Level FlightAware UK
08:06AM 54.5744 -5.7225 241° Southwest 462 532 36,000  Level FlightAware UK
08:06AM 54.5462 -5.8111 241° Southwest 462 532 36,000  Level FlightAware UK
08:07AM 54.5179 -5.8994 241° Southwest 462 532 36,000  Level FlightAware UK
08:07AM 54.4899 -5.9874 241° Southwest 464 534 36,000  Level FlightAware UK
08:08AM 54.4615 -6.0754 241° Southwest 462 532 36,000  Level FlightAware UK
08:09AM 54.4164 -6.2150 241° Southwest 460 529 36,000  Level FlightAware UK
08:09AM 54.3880 -6.3027 241° Southwest 462 532 36,000  Level FlightAware UK
08:10AM 54.3594 -6.3904 241° Southwest 462 532 36,000  Level FlightAware UK
08:10AM 54.3308 -6.4784 241° Southwest 464 534 36,000  Level FlightAware UK
08:11AM 54.3019 -6.5663 241° Southwest 462 532 36,000  Level FlightAware UK
08:11AM 54.2730 -6.6537 240° Southwest 462 532 36,000  Level FlightAware UK
08:12AM 54.2443 -6.7408 241° Southwest 460 529 36,000  Level FlightAware UK
08:12AM 54.2155 -6.8277 240° Southwest 462 532 36,000  Level FlightAware UK
08:13AM 54.1865 -6.9146 240° Southwest 460 529 36,000  Level FlightAware UK
08:13AM 54.1576 -7.0016 240° Southwest 462 532 36,000  Level FlightAware UK
08:14AM 54.1283 -7.0885 240° Southwest 462 532 36,000  Level FlightAware UK
08:14AM 54.0989 -7.1755 240° Southwest 464 534 36,000  Level FlightAware UK
08:15AM 54.0637 -7.2797 240° Southwest 464 534 36,000  Level FlightAware UK
08:15AM 54.0288 -7.3830 240° Southwest 462 532 36,000  Level FlightAware UK
08:16AM 53.9994 -7.4690 240° Southwest 462 532 36,000  Level FlightAware UK
08:16AM 53.9698 -7.5548 240° Southwest 462 532 36,000  Level FlightAware UK
08:17AM 53.9402 -7.6407 240° Southwest 462 532 36,000  Level FlightAware UK
08:17AM 53.9106 -7.7264 240° Southwest 462 532 36,000  Level FlightAware UK
08:18AM 53.8812 -7.8123 240° Southwest 464 534 36,000  Level FlightAware UK
08:18AM 53.8517 -7.8981 240° Southwest 464 534 36,000  Level FlightAware UK
08:19AM 53.8226 -7.9841 240° Southwest 460 529 36,000  Level FlightAware UK
08:19AM 53.7934 -8.0695 240° Southwest 462 532 36,000  Level FlightAware UK
08:20AM 53.7643 -8.1542 240° Southwest 460 529 36,000  Level FlightAware UK
08:20AM 53.7351 -8.2387 240° Southwest 458 527 36,000  Level FlightAware UK
08:21AM 53.7061 -8.3234 240° Southwest 460 529 36,000  Level FlightAware UK
08:21AM 53.6771 -8.4087 240° Southwest 460 529 36,000  Level FlightAware UK
08:22AM 53.6455 -8.4910 237° Southwest 462 532 36,000  Level FlightAware UK
08:22AM 53.6031 -8.5815 232° Southwest 464 534 36,000  Level FlightAware UK
08:23AM 53.5674 -8.6569 231° Southwest 462 532 36,000  Level FlightAware UK
08:23AM 53.5317 -8.7323 231° Southwest 462 532 36,000  Level FlightAware UK
08:24AM 53.4961 -8.8076 232° Southwest 462 532 36,000  Level FlightAware UK
08:24AM 53.4604 -8.8827 231° Southwest 462 532 36,000  Level FlightAware UK
08:25AM 53.4247 -8.9580 232° Southwest 462 532 36,000  Level FlightAware UK
08:27AM 53.4303 -9.3813 271° West  Level Estimated
08:34AM 53.4374 -11.1601 271° West  Level Estimated
08:35AM 53.4362 -11.4142 270° West  Level Estimated
08:36AM 53.4346 -11.6683 269° West  Level Estimated
08:37AM 53.4323 -11.9224 269° West  Level Estimated
08:38AM 53.4296 -12.1764 269° West  Level Estimated
08:39AM 53.4263 -12.4304 269° West  Level Estimated
08:40AM 53.4224 -12.6844 269° West  Level Estimated
08:41AM 53.4181 -12.9383 268° West  Level Estimated
08:42AM 53.4131 -13.1922 268° West  Level Estimated
08:43AM 53.4077 -13.4460 268° West  Level Estimated
08:44AM 53.4017 -13.6997 268° West  Level Estimated
08:45AM 53.3952 -13.9534 268° West  Level Estimated
08:46AM 53.3881 -14.2070 267° West  Level Estimated
08:47AM 53.3805 -14.4604 267° West  Level Estimated
08:48AM 53.3724 -14.7138 267° West  Level Estimated
08:49AM 53.3637 -14.9671 267° West  Level Estimated
08:50AM 53.3545 -15.2203 267° West  Level Estimated
08:51AM 53.3447 -15.4734 266° West  Level Estimated
08:52AM 53.3344 -15.7264 266° West  Level Estimated
08:53AM 53.3236 -15.9792 266° West  Level Estimated
08:54AM 53.3123 -16.2319 266° West  Level Estimated
08:55AM 53.3004 -16.4845 266° West  Level Estimated
08:56AM 53.2880 -16.7369 265° West  Level Estimated
08:57AM 53.2750 -16.9891 265° West  Level Estimated
08:58AM 53.2615 -17.2413 265° West  Level Estimated
08:59AM 53.2475 -17.4932 265° West  Level Estimated
09:00AM 53.2330 -17.7450 265° West  Level Estimated
09:01AM 53.2179 -17.9966 264° West  Level Estimated
09:02AM 53.2023 -18.2480 264° West  Level Estimated
09:03AM 53.1861 -18.4993 264° West  Level Estimated
09:04AM 53.1695 -18.7503 264° West  Level Estimated
09:05AM 53.1523 -19.0012 264° West  Level Estimated
09:06AM 53.1346 -19.2518 263° West  Level Estimated
09:07AM 53.1163 -19.5023 263° West  Level Estimated
09:08AM 53.0975 -19.7525 263° West  Level Estimated
09:09AM 53.0783 -20.0025 263° West  Level Estimated
09:10AM 53.0584 -20.2523 263° West  Level Estimated
09:11AM 53.0381 -20.5018 262° West  Level Estimated
09:12AM 53.0172 -20.7511 262° West  Level Estimated
09:13AM 52.9959 -21.0002 262° West  Level Estimated
09:14AM 52.9740 -21.2490 262° West  Level Estimated
09:15AM 52.9515 -21.4976 262° West  Level Estimated
09:16AM 52.9286 -21.7459 261° West  Level Estimated
09:17AM 52.9052 -21.9939 261° West  Level Estimated
09:18AM 52.8812 -22.2416 261° West  Level Estimated
09:19AM 52.8567 -22.4891 261° West  Level Estimated
09:20AM 52.8317 -22.7363 261° West  Level Estimated
09:21AM 52.8062 -22.9832 260° West  Level Estimated
09:22AM 52.7802 -23.2299 260° West  Level Estimated
09:23AM 52.7536 -23.4762 260° West  Level Estimated
09:24AM 52.7266 -23.7222 260° West  Level Estimated
09:25AM 52.6990 -23.9679 260° West  Level Estimated
09:26AM 52.6710 -24.2133 259° West  Level Estimated
09:27AM 52.6424 -24.4584 259° West  Level Estimated
09:28AM 52.6133 -24.7031 259° West  Level Estimated
09:29AM 52.5838 -24.9476 259° West  Level Estimated
09:30AM 52.5537 -25.1917 259° West  Level Estimated
09:31AM 52.5231 -25.4354 258° West  Level Estimated
09:32AM 52.4920 -25.6789 258° West  Level Estimated
09:33AM 52.4604 -25.9219 258° West  Level Estimated
09:34AM 52.4284 -26.1646 258° West  Level Estimated
09:35AM 52.3958 -26.4070 258° West  Level Estimated
09:36AM 52.3627 -26.6490 257° West  Level Estimated
09:37AM 52.3292 -26.8907 257° West  Level Estimated
09:37AM 49.0000 -20.0000 243° Southwest 418 481 36,000  Level ETMS Enhanced Traffic Management System
09:38AM 52.2951 -27.1319 257° West  Level Estimated
09:39AM 52.2606 -27.3728 257° West  Level Estimated
09:40AM 52.2255 -27.6134 257° West  Level Estimated
09:41AM 52.1900 -27.8535 257° West  Level Estimated
09:42AM 52.1540 -28.0933 256° West  Level Estimated
09:43AM 48.6835 -20.9432 243° Southwest 418 481 36,000  Level FlightAware Transoceanic
09:44AM 48.6300 -21.0993 243° Southwest 418 481 36,000  Level FlightAware Transoceanic
09:45AM 48.5763 -21.2550 242° Southwest 418 481 36,000  Level FlightAware Transoceanic
09:46AM 48.5224 -21.4104 242° Southwest 418 481 36,000  Level FlightAware Transoceanic
09:47AM 48.4682 -21.5654 242° Southwest 418 481 36,000  Level FlightAware Transoceanic
09:48AM 48.4139 -21.7201 242° Southwest 418 481 36,000  Level FlightAware Transoceanic
09:49AM 48.3594 -21.8745 242° Southwest 418 481 36,000  Level FlightAware Transoceanic
09:50AM 48.3046 -22.0286 242° Southwest 418 481 36,000  Level FlightAware Transoceanic
09:51AM 48.2497 -22.1823 242° Southwest 418 481 36,000  Level FlightAware Transoceanic
09:52AM 48.1945 -22.3357 242° Southwest 418 481 36,000  Level FlightAware Transoceanic
09:53AM 48.1391 -22.4888 241° Southwest 418 481 36,000  Level FlightAware Transoceanic
09:54AM 48.0836 -22.6415 241° Southwest 418 481 36,000  Level FlightAware Transoceanic
09:55AM 48.0278 -22.7939 241° Southwest 418 481 36,000  Level FlightAware Transoceanic
09:56AM 47.9719 -22.9460 241° Southwest 418 481 36,000  Level FlightAware Transoceanic
09:57AM 47.9157 -23.0978 241° Southwest 418 481 36,000  Level FlightAware Transoceanic
09:58AM 47.8593 -23.2492 241° Southwest 418 481 36,000  Level FlightAware Transoceanic
09:59AM 47.8028 -23.4003 241° Southwest 418 481 36,000  Level FlightAware Transoceanic
10:00AM 47.7460 -23.5510 241° Southwest 418 481 36,000  Level FlightAware Transoceanic
10:01AM 47.6890 -23.7015 241° Southwest 418 481 36,000  Level FlightAware Transoceanic
10:02AM 47.6319 -23.8516 240° Southwest 418 481 36,000  Level FlightAware Transoceanic
10:03AM 47.5745 -24.0013 240° Southwest 418 481 36,000  Level FlightAware Transoceanic
10:04AM 47.5170 -24.1508 240° Southwest 418 481 36,000  Level FlightAware Transoceanic
10:05AM 47.4592 -24.2999 240° Southwest 418 481 36,000  Level FlightAware Transoceanic
10:06AM 47.4013 -24.4487 240° Southwest 418 481 36,000  Level FlightAware Transoceanic
10:07AM 47.3432 -24.5971 240° Southwest 418 481 36,000  Level FlightAware Transoceanic
10:08AM 47.2849 -24.7453 240° Southwest 418 481 36,000  Level FlightAware Transoceanic
10:09AM 47.2264 -24.8931 240° Southwest 418 481 36,000  Level FlightAware Transoceanic
10:10AM 47.1677 -25.0406 240° Southwest 418 481 36,000  Level FlightAware Transoceanic
10:11AM 47.1088 -25.1877 239° Southwest 418 481 36,000  Level FlightAware Transoceanic
10:12AM 47.0497 -25.3345 239° Southwest 418 481 36,000  Level FlightAware Transoceanic
10:13AM 46.9905 -25.4811 239° Southwest 418 481 36,000  Level FlightAware Transoceanic
10:14AM 46.9310 -25.6272 239° Southwest 418 481 36,000  Level FlightAware Transoceanic
10:15AM 46.8714 -25.7731 239° Southwest 418 481 36,000  Level FlightAware Transoceanic
10:16AM 46.8116 -25.9186 239° Southwest 418 481 36,000  Level FlightAware Transoceanic
10:17AM 46.7516 -26.0638 239° Southwest 418 481 36,000  Level FlightAware Transoceanic
10:18AM 46.6914 -26.2087 239° Southwest 418 481 36,000  Level FlightAware Transoceanic
10:19AM 46.6310 -26.3533 239° Southwest 418 481 36,000  Level FlightAware Transoceanic
10:20AM 46.5705 -26.4975 239° Southwest 418 481 36,000  Level FlightAware Transoceanic
10:21AM 46.5097 -26.6414 238° Southwest 418 481 36,000  Level FlightAware Transoceanic
10:22AM 46.4488 -26.7850 238° Southwest 418 481 36,000  Level FlightAware Transoceanic
10:23AM 46.3877 -26.9283 238° Southwest 418 481 36,000  Level FlightAware Transoceanic
10:24AM 46.3265 -27.0712 238° Southwest 418 481 36,000  Level FlightAware Transoceanic
10:25AM 46.2650 -27.2139 238° Southwest 418 481 36,000  Level FlightAware Transoceanic
10:26AM 46.2034 -27.3562 238° Southwest 418 481 36,000  Level FlightAware Transoceanic
10:27AM 46.1416 -27.4982 238° Southwest 418 481 36,000  Level FlightAware Transoceanic
10:28AM 46.0796 -27.6398 238° Southwest 418 481 36,000  Level FlightAware Transoceanic
10:29AM 46.0175 -27.7812 238° Southwest 418 481 36,000  Level FlightAware Transoceanic
10:30AM 45.9552 -27.9222 237° Southwest 418 481 36,000  Level FlightAware Transoceanic
10:31AM 45.8927 -28.0629 237° Southwest 418 481 36,000  Level FlightAware Transoceanic
10:32AM 45.8300 -28.2033 237° Southwest 418 481 36,000  Level FlightAware Transoceanic
10:33AM 45.7672 -28.3434 237° Southwest 418 481 36,000  Level FlightAware Transoceanic
10:34AM 45.7042 -28.4832 237° Southwest 418 481 36,000  Level FlightAware Transoceanic
10:35AM 45.6410 -28.6227 237° Southwest 418 481 36,000  Level FlightAware Transoceanic
10:36AM 45.5776 -28.7618 237° Southwest 418 481 36,000  Level FlightAware Transoceanic
10:37AM 45.5141 -28.9006 237° Southwest 418 481 36,000  Level FlightAware Transoceanic
10:38AM 45.4504 -29.0391 237° Southwest 418 481 36,000  Level FlightAware Transoceanic
10:39AM 45.3866 -29.1773 237° Southwest 418 481 36,000  Level FlightAware Transoceanic
10:40AM 45.3226 -29.3152 236° Southwest 418 481 36,000  Level FlightAware Transoceanic
10:41AM 45.2584 -29.4528 236° Southwest 418 481 36,000  Level FlightAware Transoceanic
10:42AM 45.1940 -29.5901 236° Southwest 418 481 36,000  Level FlightAware Transoceanic
10:43AM 45.1295 -29.7270 236° Southwest 418 481 36,000  Level FlightAware Transoceanic
10:44AM 45.0648 -29.8637 236° Southwest 418 481 36,000  Level FlightAware Transoceanic
10:45AM 44.9803 -30.0413 236° Southwest  Level FlightAware Approximate
10:46AM 44.9770 -30.0942 251° West  Level FlightAware Approximate
10:47AM 44.9274 -30.2963 251° West  Level FlightAware Approximate
10:48AM 44.8774 -30.4981 251° West  Level FlightAware Approximate
10:49AM 44.8271 -30.6995 251° West  Level FlightAware Approximate
10:50AM 44.7764 -30.9005 251° West  Level FlightAware Approximate
10:51AM 44.7253 -31.1012 250° West  Level FlightAware Approximate
10:52AM 44.6740 -31.3015 250° West  Level FlightAware Approximate
10:53AM 44.6222 -31.5015 250° West  Level FlightAware Approximate
10:54AM 44.5701 -31.7011 250° West  Level FlightAware Approximate
10:55AM 44.5177 -31.9004 250° West  Level FlightAware Approximate
10:56AM 44.4649 -32.0993 250° West  Level FlightAware Approximate
10:57AM 44.4118 -32.2978 250° West  Level FlightAware Approximate
10:58AM 44.3583 -32.4960 249° West  Level FlightAware Approximate
10:59AM 44.3045 -32.6938 249° West  Level FlightAware Approximate
11:00AM 44.2504 -32.8912 249° West  Level FlightAware Approximate
11:01AM 44.1959 -33.0883 249° West  Level FlightAware Approximate
11:02AM 44.1410 -33.2850 249° West  Level FlightAware Approximate
11:03AM 44.0859 -33.4814 249° West  Level FlightAware Approximate
11:04AM 44.0304 -33.6774 249° West  Level FlightAware Approximate
11:05AM 43.9746 -33.8730 248° West  Level FlightAware Approximate
11:06AM 43.9184 -34.0683 248° West  Level FlightAware Approximate
11:07AM 43.8619 -34.2631 248° West  Level FlightAware Approximate
11:08AM 43.8051 -34.4576 248° West  Level FlightAware Approximate
11:09AM 43.7479 -34.6518 248° West  Level FlightAware Approximate
11:10AM 43.6904 -34.8456 248° West  Level FlightAware Approximate
11:11AM 43.6326 -35.0390 248° West  Level FlightAware Approximate
11:12AM 43.5745 -35.2320 247° West  Level FlightAware Approximate
11:13AM 43.5160 -35.4246 247° West  Level FlightAware Approximate
11:14AM 43.4572 -35.6169 247° West  Level FlightAware Approximate
11:15AM 43.3981 -35.8088 247° West  Level FlightAware Approximate
11:16AM 43.3387 -36.0003 247° West  Level FlightAware Approximate
11:17AM 43.2789 -36.1915 247° West  Level FlightAware Approximate
11:18AM 43.2189 -36.3823 247° West  Level FlightAware Approximate
11:19AM 43.1585 -36.5727 247° West  Level FlightAware Approximate
11:20AM 43.0978 -36.7627 246° West  Level FlightAware Approximate
11:21AM 43.0368 -36.9523 246° West  Level FlightAware Approximate
11:22AM 42.9754 -37.1416 246° West  Level FlightAware Approximate
11:23AM 42.9138 -37.3305 246° West  Level FlightAware Approximate
11:24AM 42.8519 -37.5190 246° West  Level FlightAware Approximate
11:25AM 42.7896 -37.7071 246° West  Level FlightAware Approximate
11:26AM 42.7271 -37.8949 246° West  Level FlightAware Approximate
11:27AM 42.6642 -38.0823 246° West  Level FlightAware Approximate
11:28AM 42.6010 -38.2692 245° Southwest  Level FlightAware Approximate
11:29AM 42.5376 -38.4559 245° Southwest  Level FlightAware Approximate
11:30AM 42.4738 -38.6421 245° Southwest  Level FlightAware Approximate
11:31AM 42.4097 -38.8279 245° Southwest  Level FlightAware Approximate
11:32AM 42.3454 -39.0135 245° Southwest  Level FlightAware Approximate
11:33AM 42.2814 -39.1990 245° Southwest  Level FlightAware Approximate
11:34AM 42.2170 -39.3841 245° Southwest  Level FlightAware Approximate
11:35AM 42.1524 -39.5689 245° Southwest  Level FlightAware Approximate
11:36AM 42.0875 -39.7533 245° Southwest  Level FlightAware Approximate
11:37AM 42.0223 -39.9372 245° Southwest  Level FlightAware Approximate
11:38AM 41.9688 -40.1274 252° West  Level FlightAware Approximate
11:39AM 41.9210 -40.3205 252° West  Level FlightAware Approximate
11:40AM 41.8730 -40.5134 252° West  Level FlightAware Approximate
11:41AM 41.8246 -40.7059 251° West  Level FlightAware Approximate
11:42AM 41.7759 -40.8982 251° West  Level FlightAware Approximate
11:43AM 41.7269 -41.0902 251° West  Level FlightAware Approximate
11:44AM 41.6776 -41.2819 251° West  Level FlightAware Approximate
11:45AM 41.6279 -41.4733 251° West  Level FlightAware Approximate
11:46AM 41.5780 -41.6644 251° West  Level FlightAware Approximate
11:47AM 41.5277 -41.8552 251° West  Level FlightAware Approximate
11:48AM 41.4771 -42.0457 251° West  Level FlightAware Approximate
11:49AM 41.4262 -42.2360 250° West  Level FlightAware Approximate
11:50AM 41.3750 -42.4259 250° West  Level FlightAware Approximate
11:51AM 41.3234 -42.6155 250° West  Level FlightAware Approximate
11:52AM 41.2716 -42.8048 250° West  Level FlightAware Approximate
11:53AM 41.2195 -42.9938 250° West  Level FlightAware Approximate
11:54AM 41.1670 -43.1825 250° West  Level FlightAware Approximate
11:55AM 41.1142 -43.3709 250° West  Level FlightAware Approximate
11:56AM 41.0611 -43.5590 250° West  Level FlightAware Approximate
11:57AM 41.0078 -43.7468 249° West  Level FlightAware Approximate
11:58AM 40.9541 -43.9343 249° West  Level FlightAware Approximate
11:59AM 40.9001 -44.1215 249° West  Level FlightAware Approximate
12:00PM 40.8458 -44.3084 249° West  Level FlightAware Approximate
12:01PM 40.7912 -44.4950 249° West  Level FlightAware Approximate
12:01PM 42.0000 -40.0000 252° West 410 472 38,000  Level New York Oceanic (ODAPS)
12:02PM 40.7363 -44.6812 249° West  Level FlightAware Approximate
12:03PM 40.6811 -44.8672 249° West  Level FlightAware Approximate
12:04PM 40.6256 -45.0528 249° West  Level FlightAware Approximate
12:05PM 40.5699 -45.2382 248° West  Level FlightAware Approximate
12:06PM 40.5138 -45.4232 248° West  Level FlightAware Approximate
12:07PM 41.7472 -41.0110 251° West 410 472 38,000  Level FlightAware Transoceanic
12:07PM 41.7000 -41.1667 251° West 410 472 38,000  Level New York Oceanic (ODAPS)
12:08PM 41.7104 -41.1548 251° West 410 472 38,000  Level FlightAware Transoceanic
12:09PM 41.6733 -41.2984 251° West 410 472 38,000  Level FlightAware Transoceanic
12:10PM 41.6361 -41.4418 251° West 410 472 38,000  Level FlightAware Transoceanic
12:11PM 41.5988 -41.5851 251° West 410 472 38,000  Level FlightAware Transoceanic
12:12PM 41.5612 -41.7282 251° West 410 472 38,000  Level FlightAware Transoceanic
12:13PM 41.5235 -41.8712 251° West 410 472 38,000  Level FlightAware Transoceanic
12:14PM 41.4761 -42.0245 250° West 410 472 38,000  Level FlightAware Transoceanic
12:15PM 41.4382 -42.1669 250° West 410 472 38,000  Level FlightAware Transoceanic
12:16PM 41.4001 -42.3092 250° West 410 472 38,000  Level FlightAware Transoceanic
12:17PM 41.3618 -42.4512 250° West 410 472 38,000  Level FlightAware Transoceanic
12:18PM 41.3233 -42.5931 250° West 410 472 38,000  Level FlightAware Transoceanic
12:19PM 41.2847 -42.7349 250° West 410 472 38,000  Level FlightAware Transoceanic
12:20PM 41.2459 -42.8764 250° West 410 472 38,000  Level FlightAware Transoceanic
12:21PM 41.2069 -43.0178 250° West 410 472 38,000  Level FlightAware Transoceanic
12:21PM 41.1833 -43.1333 250° West 403 464 38,000  Level New York Oceanic (ODAPS)
12:22PM 41.1678 -43.1590 250° West 410 472 38,000  Level FlightAware Transoceanic
12:23PM 41.1285 -43.3001 250° West 410 472 38,000  Level FlightAware Transoceanic
12:24PM 41.0890 -43.4410 250° West 410 472 38,000  Level FlightAware Transoceanic
12:25PM 41.0493 -43.5817 249° West 410 472 38,000  Level FlightAware Transoceanic
12:26PM 41.0095 -43.7223 249° West 410 472 38,000  Level FlightAware Transoceanic
12:27PM 40.9695 -43.8626 249° West 410 472 38,000  Level FlightAware Transoceanic
12:28PM 40.9479 -43.9639 249° West 403 464 38,000  Level FlightAware Transoceanic
12:29PM 40.9081 -44.1018 249° West 403 464 38,000  Level FlightAware Transoceanic
12:30PM 40.8681 -44.2395 249° West 403 464 38,000  Level FlightAware Transoceanic
12:31PM 40.8280 -44.3770 249° West 403 464 38,000  Level FlightAware Transoceanic
12:32PM 40.7877 -44.5143 249° West 403 464 38,000  Level FlightAware Transoceanic
12:33PM 40.7472 -44.6515 249° West 403 464 38,000  Level FlightAware Transoceanic
12:34PM 40.7066 -44.7885 249° West 403 464 38,000  Level FlightAware Transoceanic
12:35PM 40.6658 -44.9254 248° West 403 464 38,000  Level FlightAware Transoceanic
12:35PM 40.6667 -44.9500 248° West 393 452 38,000  Level New York Oceanic (ODAPS)
12:36PM 40.6248 -45.0621 248° West 403 464 38,000  Level FlightAware Transoceanic
12:37PM 40.5837 -45.1986 248° West 403 464 38,000  Level FlightAware Transoceanic
12:38PM 40.5424 -45.3349 248° West 403 464 38,000  Level FlightAware Transoceanic
12:39PM 40.5010 -45.4711 248° West 403 464 38,000  Level FlightAware Transoceanic
12:40PM 40.4594 -45.6071 248° West 403 464 38,000  Level FlightAware Transoceanic
12:41PM 40.4176 -45.7430 248° West 403 464 38,000  Level FlightAware Transoceanic
12:42PM 40.4183 -45.7636 248° West 393 452 38,000  Level FlightAware Transoceanic
12:43PM 40.3763 -45.8986 248° West 393 452 38,000  Level FlightAware Transoceanic
12:44PM 40.3342 -46.0335 248° West 393 452 38,000  Level FlightAware Transoceanic
12:45PM 40.2919 -46.1682 248° West 393 452 38,000  Level FlightAware Transoceanic
12:46PM 40.2495 -46.3027 247° West 393 452 38,000  Level FlightAware Transoceanic
12:47PM 40.2069 -46.4370 247° West 393 452 38,000  Level FlightAware Transoceanic
12:48PM 40.1642 -46.5712 247° West 393 452 38,000  Level FlightAware Transoceanic
12:49PM 40.1213 -46.7052 247° West 393 452 38,000  Level FlightAware Transoceanic
12:49PM 40.1167 -46.6833 247° West 387 445 38,000  Level New York Oceanic (ODAPS)
12:50PM 40.0782 -46.8390 247° West 393 452 38,000  Level FlightAware Transoceanic
12:51PM 40.0350 -46.9727 247° West 393 452 38,000  Level FlightAware Transoceanic
12:52PM 39.9917 -47.1062 247° West 393 452 38,000  Level FlightAware Transoceanic
12:53PM 39.9482 -47.2395 247° West 393 452 38,000  Level FlightAware Transoceanic
12:54PM 39.9045 -47.3727 247° West 393 452 38,000  Level FlightAware Transoceanic
12:55PM 39.8674 -47.4582 247° West 387 445 38,000  Level FlightAware Transoceanic
12:56PM 39.8254 -47.5868 247° West 387 445 38,000  Level FlightAware Transoceanic
12:57PM 39.7832 -47.7152 247° West 387 445 38,000  Level FlightAware Transoceanic
12:58PM 39.7408 -47.8435 247° West 387 445 38,000  Level FlightAware Transoceanic
12:59PM 39.6984 -47.9716 247° West 387 445 38,000  Level FlightAware Transoceanic
01:00PM 39.6558 -48.0996 247° West 387 445 38,000  Level FlightAware Transoceanic
01:01PM 39.6130 -48.2274 246° West 387 445 38,000  Level FlightAware Transoceanic
01:02PM 39.5701 -48.3550 246° West 387 445 38,000  Level FlightAware Transoceanic
01:03PM 39.5271 -48.4825 246° West 387 445 38,000  Level FlightAware Transoceanic
01:03PM 39.5667 -48.3833 246° West 389 448 38,000  Level New York Oceanic (ODAPS)
01:04PM 39.4839 -48.6098 246° West 387 445 38,000  Level FlightAware Transoceanic
01:05PM 39.4406 -48.7370 246° West 387 445 38,000  Level FlightAware Transoceanic
01:06PM 39.3972 -48.8640 246° West 387 445 38,000  Level FlightAware Transoceanic
01:07PM 39.3536 -48.9909 246° West 387 445 38,000  Level FlightAware Transoceanic
01:08PM 39.3099 -49.1176 246° West 387 445 38,000  Level FlightAware Transoceanic
01:09PM 39.3079 -49.1327 246° West 389 448 38,000  Level FlightAware Transoceanic
01:10PM 39.2643 -49.2571 246° West 389 448 38,000  Level FlightAware Transoceanic
01:11PM 39.2206 -49.3813 246° West 389 448 38,000  Level FlightAware Transoceanic
01:12PM 39.1767 -49.5053 245° Southwest 389 448 38,000  Level FlightAware Transoceanic
01:13PM 39.1328 -49.6292 245° Southwest 389 448 38,000  Level FlightAware Transoceanic
01:14PM 39.0886 -49.7530 245° Southwest 389 448 38,000  Level FlightAware Transoceanic
01:15PM 39.0444 -49.8766 245° Southwest 389 448 38,000  Level FlightAware Transoceanic
01:16PM 39.0000 -50.0000 234° Southwest 389 448 38,000  Level FlightAware Transoceanic
01:16PM 39.0000 -50.0000 234° Southwest 410 472 38,000  Level New York Oceanic (ODAPS)
01:17PM 38.9327 -50.1209 234° Southwest 389 448 38,000  Level FlightAware Transoceanic
01:17PM 38.9500 -50.1000 234° Southwest 416 479 38,000  Level New York Oceanic (ODAPS)
01:18PM 38.8653 -50.2416 234° Southwest 389 448 38,000  Level FlightAware Transoceanic
01:19PM 38.7977 -50.3621 234° Southwest 389 448 38,000  Level FlightAware Transoceanic
01:20PM 38.7300 -50.4823 234° Southwest 389 448 38,000  Level FlightAware Transoceanic
01:21PM 38.6623 -50.6024 234° Southwest 389 448 38,000  Level FlightAware Transoceanic
01:22PM 38.6036 -50.7058 234° Southwest 410 472 38,000  Level FlightAware Transoceanic
01:23PM 38.5412 -50.8240 234° Southwest 416 479 38,000  Level FlightAware Transoceanic
01:24PM 38.4727 -50.9439 234° Southwest 416 479 38,000  Level FlightAware Transoceanic
01:25PM 38.4040 -51.0635 234° Southwest 416 479 38,000  Level FlightAware Transoceanic
01:26PM 38.3352 -51.1829 234° Southwest 416 479 38,000  Level FlightAware Transoceanic
01:27PM 38.2663 -51.3021 234° Southwest 416 479 38,000  Level FlightAware Transoceanic
01:28PM 38.1972 -51.4211 234° Southwest 416 479 38,000  Level FlightAware Transoceanic
01:29PM 38.1281 -51.5398 233° Southwest 416 479 38,000  Level FlightAware Transoceanic
01:30PM 38.0588 -51.6583 233° Southwest 416 479 38,000  Level FlightAware Transoceanic
01:31PM 37.9894 -51.7766 233° Southwest 416 479 38,000  Level FlightAware Transoceanic
01:31PM 38.0000 -51.7500 233° Southwest 419 482 38,000  Level New York Oceanic (ODAPS)
01:32PM 37.9199 -51.8947 233° Southwest 416 479 38,000  Level FlightAware Transoceanic
01:33PM 37.8502 -52.0125 233° Southwest 416 479 38,000  Level FlightAware Transoceanic
01:34PM 37.7805 -52.1301 233° Southwest 416 479 38,000  Level FlightAware Transoceanic
01:35PM 37.7106 -52.2475 233° Southwest 416 479 38,000  Level FlightAware Transoceanic
01:36PM 37.6406 -52.3647 233° Southwest 416 479 38,000  Level FlightAware Transoceanic
01:37PM 37.5790 -52.4609 233° Southwest 419 482 38,000  Level FlightAware Transoceanic
01:38PM 37.5084 -52.5786 233° Southwest 419 482 38,000  Level FlightAware Transoceanic
01:39PM 37.4377 -52.6961 233° Southwest 419 482 38,000  Level FlightAware Transoceanic
01:40PM 37.3669 -52.8134 233° Southwest 419 482 38,000  Level FlightAware Transoceanic
01:41PM 37.2960 -52.9304 233° Southwest 419 482 38,000  Level FlightAware Transoceanic
01:42PM 37.2249 -53.0472 233° Southwest 419 482 38,000  Level FlightAware Transoceanic
01:43PM 37.1537 -53.1638 233° Southwest 419 482 38,000  Level FlightAware Transoceanic
01:44PM 37.0825 -53.2802 232° Southwest 419 482 38,000  Level FlightAware Transoceanic
01:45PM 37.0111 -53.3964 232° Southwest 419 482 38,000  Level FlightAware Transoceanic
01:45PM 37.0167 -53.3833 232° Southwest 423 487 38,000  Level New York Oceanic (ODAPS)
01:46PM 36.9396 -53.5123 232° Southwest 419 482 38,000  Level FlightAware Transoceanic
01:47PM 36.8680 -53.6281 232° Southwest 419 482 38,000  Level FlightAware Transoceanic
01:48PM 36.7962 -53.7435 232° Southwest 419 482 38,000  Level FlightAware Transoceanic
01:49PM 36.7244 -53.8588 232° Southwest 419 482 38,000  Level FlightAware Transoceanic
01:50PM 36.6525 -53.9739 232° Southwest 419 482 38,000  Level FlightAware Transoceanic
01:51PM 36.5836 -54.0814 232° Southwest 423 487 38,000  Level FlightAware Transoceanic
01:52PM 36.5111 -54.1970 232° Southwest 423 487 38,000  Level FlightAware Transoceanic
01:53PM 36.4384 -54.3123 232° Southwest 423 487 38,000  Level FlightAware Transoceanic
01:54PM 36.3656 -54.4275 232° Southwest 423 487 38,000  Level FlightAware Transoceanic
01:55PM 36.2927 -54.5424 232° Southwest 423 487 38,000  Level FlightAware Transoceanic
01:56PM 36.2197 -54.6571 232° Southwest 423 487 38,000  Level FlightAware Transoceanic
01:57PM 36.1466 -54.7716 232° Southwest 423 487 38,000  Level FlightAware Transoceanic
01:58PM 36.0733 -54.8859 232° Southwest 423 487 38,000  Level FlightAware Transoceanic
01:59PM 36.0000 -55.0000 245° Southwest 423 487 38,000  Level FlightAware Transoceanic
01:59PM 36.0000 -55.0000 245° Southwest 404 465 38,000  Level New York Oceanic (ODAPS)
02:00PM 35.9525 -55.1280 245° Southwest 423 487 38,000  Level FlightAware Transoceanic
02:01PM 35.9050 -55.2558 245° Southwest 423 487 38,000  Level FlightAware Transoceanic
02:02PM 35.8572 -55.3835 245° Southwest 423 487 38,000  Level FlightAware Transoceanic
02:03PM 35.8094 -55.5110 245° Southwest 423 487 38,000  Level FlightAware Transoceanic
02:04PM 35.7614 -55.6384 245° Southwest 423 487 38,000  Level FlightAware Transoceanic
02:05PM 35.7133 -55.7656 245° Southwest 404 465 38,000  Level FlightAware Transoceanic
02:06PM 35.6650 -55.8927 245° Southwest 404 465 38,000  Level FlightAware Transoceanic
02:07PM 35.6166 -56.0196 245° Southwest 404 465 38,000  Level FlightAware Transoceanic
02:08PM 35.5681 -56.1464 245° Southwest 404 465 38,000  Level FlightAware Transoceanic
02:09PM 35.5194 -56.2730 245° Southwest 404 465 38,000  Level FlightAware Transoceanic
02:10PM 35.4706 -56.3994 245° Southwest 404 465 38,000  Level FlightAware Transoceanic
02:11PM 35.4217 -56.5257 245° Southwest 404 465 38,000 -2,040 Level FlightAware Transoceanic
02:11PM 48.2333 -67.2333 244° Southwest 400 460 36,000 -30,000 Descending Moncton Center
02:11PM 48.1333 -67.3000 204° Southwest 400 460 36,000  Level Moncton Center
02:11PM 48.0333 -67.3833 209° Southwest 390 449 36,000  Level Moncton Center
02:11PM 47.9333 -67.4167 193° South 390 449 36,000  Level Moncton Center
02:11PM 47.8333 -67.4833 204° Southwest 390 449 36,000  Level Moncton Center
02:11PM 47.7167 -67.5333 196° South 390 449 36,000  Level Moncton Center
02:11PM 47.6167 -67.6000 204° Southwest 390 449 36,000  Level Moncton Center
02:11PM 47.5167 -67.6667 204° Southwest 390 449 36,000  Level Moncton Center
02:11PM 47.4167 -67.7167 199° South 390 449 36,000  Level Moncton Center
02:11PM 47.3167 -67.7833 204° Southwest 390 449 36,000  Level Moncton Center
02:11PM 47.1167 -67.8833 199° South 390 449 36,000  Level Moncton Center
02:11PM 46.9000 -68.0167 203° Southwest 390 449 36,000  Level Moncton Center
02:11PM 46.8000 -68.0667 199° South 390 449 36,000 9,960 Level Moncton Center
02:12PM 35.3727 -56.6519 244° Southwest 404 465 38,000  Climbing FlightAware Transoceanic
02:12PM 46.6000 -68.1667 199° South 410 472 36,000 -840 Descending Moncton Center
02:12PM 46.1500 -68.3333 194° South 400 460 37,800 3,120 Climbing Moncton Center
02:12PM 45.5167 -68.6000 196° South 390 449 38,000 420 Climbing Moncton Center
02:12PM 45.4167 -68.6333 244° Southwest 390 449 38,000  Level Moncton Center
02:12PM 35.3500 -56.7333 244° Southwest 407 468 38,000  Level New York Oceanic (ODAPS)
02:12PM 45.0833 -68.7833 198° South 400 460 38,000  Level Moncton Center
02:13PM 35.3235 -56.7779 244° Southwest 404 465 38,000  Level FlightAware Transoceanic
02:13PM 44.8833 -68.8667 196° South 400 460 38,000  Level Moncton Center
02:13PM 44.7833 -68.9000 193° South 390 449 38,000  Level Moncton Center
02:13PM 44.7000 -68.9667 210° Southwest 380 437 38,000  Level Moncton Center
02:13PM 44.5833 -69.0167 197° South 370 426 38,000  Level Moncton Center
02:13PM 44.5000 -69.0833 210° Southwest 390 449 38,000  Level Moncton Center
02:13PM 44.2333 -69.3000 210° Southwest 380 437 38,000  Level Moncton Center
02:13PM 44.0333 -69.4167 203° Southwest 380 437 38,000  Level Moncton Center
02:13PM 43.7500 -69.6000 205° Southwest 390 449 38,000  Level Moncton Center
02:13PM 43.6500 -69.6667 206° Southwest 380 437 38,000  Level Moncton Center
02:13PM 43.5500 -69.7167 200° South 380 437 38,000  Level Moncton Center
02:13PM 43.4500 -69.8000 211° Southwest 390 449 38,000  Level Moncton Center
02:14PM 35.2742 -56.9037 244° Southwest 404 465 38,000  Level FlightAware Transoceanic
02:14PM 43.1167 -69.8667 188° South 420 483 38,000  Level Moncton Center
02:14PM 42.9000 -69.9167 190° South 420 483 38,000  Level Moncton Center
02:14PM 42.7833 -69.9333 186° South 420 483 38,000  Level Moncton Center
02:14PM 42.6667 -69.9333 180° South 420 483 38,000  Level Moncton Center
02:14PM 42.4333 -69.9833 189° South 410 472 38,000  Level Moncton Center
02:14PM 42.3167 -70.0000 186° South 420 483 38,000  Level Moncton Center
02:14PM 42.2167 -70.0167 187° South 420 483 38,000  Level Moncton Center
02:14PM 41.8500 -70.2667 207° Southwest 370 426 38,000  Level Moncton Center
02:14PM 41.7833 -70.3500 223° Southwest 360 414 38,000  Level Moncton Center
02:15PM 35.2247 -57.0294 244° Southwest 404 465 38,000  Level FlightAware Transoceanic
02:15PM 41.7167 -70.4500 228° Southwest 350 403 38,000  Level Moncton Center
02:15PM 41.6500 -70.5333 223° Southwest 350 403 38,000  Level Moncton Center
02:15PM 41.5833 -70.6500 233° Southwest 350 403 38,000  Level Moncton Center
02:15PM 41.5333 -70.7333 231° Southwest 350 403 38,000  Level Moncton Center
02:15PM 41.4500 -70.8333 222° Southwest 350 403 38,000  Level Moncton Center
02:15PM 41.3333 -71.0167 230° Southwest 350 403 38,000  Level Moncton Center
02:16PM 35.1751 -57.1549 244° Southwest 404 465 38,000  Level FlightAware Transoceanic
02:17PM 41.1631 -71.1525 211° Southwest  Level Estimated
02:24PM 40.4533 -71.7096 211° Southwest  Level Estimated
02:25PM 40.3517 -71.7883 211° Southwest  Level Estimated
02:26PM 40.2500 -71.8667 210° Southwest  Level Estimated
02:26PM 34.6500 -58.4500 244° Southwest 407 468 38,000  Level New York Oceanic (ODAPS)
02:27PM 40.1483 -71.9448 210° Southwest  Level Estimated
02:28PM 40.0465 -72.0228 210° Southwest  Level Estimated
02:29PM 39.9447 -72.1005 210° Southwest  Level Estimated
02:30PM 39.8428 -72.1779 210° Southwest  Level Estimated
02:31PM 39.7409 -72.2552 210° Southwest  Level Estimated
02:32PM 34.3524 -59.1684 243° Southwest 407 468 38,000  Level FlightAware Transoceanic
02:33PM 34.3024 -59.2876 243° Southwest 407 468 38,000  Level FlightAware Transoceanic
02:34PM 34.2523 -59.4067 243° Southwest 407 468 38,000  Level FlightAware Transoceanic
02:35PM 34.2021 -59.5256 243° Southwest 407 468 38,000  Level FlightAware Transoceanic
02:36PM 34.1517 -59.6444 243° Southwest 407 468 38,000  Level FlightAware Transoceanic
02:37PM 34.1013 -59.7631 243° Southwest 407 468 38,000  Level FlightAware Transoceanic
02:38PM 34.0507 -59.8816 243° Southwest 407 468 38,000  Level FlightAware Transoceanic
02:39PM 34.0000 -60.0000 252° West 407 468 38,000  Level FlightAware Transoceanic
02:39PM 34.0000 -60.0000 252° West 408 470 38,000  Level New York Oceanic (ODAPS)
02:40PM 33.9660 -60.1242 252° West 407 468 38,000  Level FlightAware Transoceanic
02:40PM 33.9500 -60.1667 252° West 405 466 38,000  Level New York Oceanic (ODAPS)
02:41PM 33.9318 -60.2482 252° West 407 468 38,000  Level FlightAware Transoceanic
02:42PM 33.8975 -60.3722 252° West 407 468 38,000  Level FlightAware Transoceanic
02:43PM 33.8631 -60.4961 251° West 407 468 38,000  Level FlightAware Transoceanic
02:44PM 33.8285 -60.6198 251° West 407 468 38,000  Level FlightAware Transoceanic
02:45PM 33.7939 -60.7435 251° West 408 470 38,000  Level FlightAware Transoceanic
02:46PM 33.7517 -60.8862 251° West 405 466 38,000  Level FlightAware Transoceanic
02:47PM 33.7183 -61.0059 251° West 405 466 38,000  Level FlightAware Transoceanic
02:48PM 33.6847 -61.1254 251° West 405 466 38,000  Level FlightAware Transoceanic
02:49PM 33.6510 -61.2448 251° West 405 466 38,000  Level FlightAware Transoceanic
02:50PM 33.6172 -61.3641 251° West 405 466 38,000  Level FlightAware Transoceanic
02:51PM 33.5833 -61.4833 242° Southwest 405 466 38,000  Level FlightAware Transoceanic
02:52PM 33.5283 -61.6095 242° Southwest 405 466 38,000  Level FlightAware Transoceanic
02:52PM 33.5267 -61.6461 242° Southwest 459 528 38,000  Level New York Center
02:53PM 33.4731 -61.7356 242° Southwest 405 466 38,000  Level FlightAware Transoceanic
02:53PM 33.4808 -61.7831 248° West 424 488 38,000  Level New York Center
02:54PM 33.4179 -61.8614 242° Southwest 405 466 38,000  Level FlightAware Transoceanic
02:54PM 33.4353 -61.8975 245° Southwest 417 480 38,000  Level New York Center
02:55PM 33.3624 -61.9871 242° Southwest 405 466 38,000  Level FlightAware Transoceanic
02:55PM 33.3872 -62.0367 248° West 412 474 38,000  Level New York Center
02:56PM 33.3069 -62.1127 242° Southwest 405 466 38,000  Level FlightAware Transoceanic
02:56PM 33.3403 -62.1633 246° West 425 489 38,000  Level New York Center
02:57PM 33.2983 -62.2744 246° West 425 489 38,000  Level New York Center
02:58PM 33.2414 -62.4142 244° Southwest 425 489 38,000  Level New York Center
02:59PM 33.1961 -62.5403 247° West 420 483 38,000  Level New York Center
03:00PM 33.1542 -62.6558 247° West 425 489 38,000  Level New York Center
03:01PM 33.1053 -62.7969 248° West 425 489 38,000  Level New York Center
03:02PM 33.0586 -62.9103 244° Southwest 425 489 38,000  Level New York Center
03:03PM 33.0053 -63.0486 245° Southwest 420 483 38,000  Level New York Center
03:04PM 32.9572 -63.1742 246° West 426 490 38,000  Level New York Center
03:05PM 32.9144 -63.2892 246° West 426 490 38,000  Level New York Center
03:06PM 32.8586 -63.4300 245° Southwest 426 490 38,000  Level New York Center
03:07PM 32.8119 -63.5550 246° West 426 490 38,000  Level New York Center
03:08PM 32.7669 -63.6700 245° Southwest 426 490 38,000  Level New York Center
03:09PM 32.7106 -63.8103 244° Southwest 426 490 38,000  Level New York Center
03:10PM 32.6692 -63.9219 246° West 426 490 38,000  Level New York Center
03:11PM 32.6147 -64.0619 245° Southwest 426 490 38,000  Level New York Center
03:12PM 32.5653 -64.1864 245° Southwest 433 498 38,000  Level New York Center
03:13PM 32.5197 -64.3031 245° Southwest 433 498 38,000  Level New York Center
03:14PM 32.4644 -64.4397 244° Southwest 433 498 38,000  Level New York Center
03:15PM 32.4169 -64.5639 246° West 433 498 38,000  Level New York Center
03:16PM 32.3650 -64.6903 244° Southwest 433 498 38,000  Level New York Center
03:17PM 32.2906 -64.8256 237° Southwest 427 491 38,000  Level New York Center
03:18PM 32.2272 -64.9353 236° Southwest 427 491 38,000  Level New York Center
03:19PM 32.1703 -65.0444 238° Southwest 432 497 38,000  Level New York Center
03:20PM 32.0972 -65.1742 236° Southwest 437 503 38,000  Level New York Center
03:21PM 32.0356 -65.2808 236° Southwest 437 503 38,000  Level New York Center
03:22PM 31.9642 -65.4100 237° Southwest 432 497 38,000  Level New York Center
03:23PM 31.8989 -65.5311 238° Southwest 439 505 38,000  Level New York Center
03:24PM 31.8347 -65.6350 234° Southwest 439 505 38,000  Level New York Center
03:25PM 31.7611 -65.7686 237° Southwest 444 511 38,000  Level New York Center
03:26PM 31.6950 -65.8844 236° Southwest 444 511 38,000  Level New York Center
03:27PM 31.6328 -65.9903 235° Southwest 439 505 38,000  Level New York Center
03:28PM 31.5631 -66.1231 238° Southwest 434 499 38,000  Level New York Center
03:29PM 31.5006 -66.2308 236° Southwest 441 507 38,000  Level New York Center
03:30PM 31.4264 -66.3608 236° Southwest 441 507 38,000  Level New York Center
03:31PM 31.3556 -66.4761 234° Southwest 446 513 38,000  Level New York Center
03:32PM 31.2925 -66.5808 235° Southwest 446 513 38,000  Level New York Center
03:33PM 31.2200 -66.7103 237° Southwest 446 513 38,000  Level New York Center
03:34PM 31.1531 -66.8272 236° Southwest 446 513 38,000  Level New York Center
03:35PM 31.0900 -66.9339 235° Southwest 451 519 38,000  Level New York Center
03:36PM 31.0169 -67.0628 237° Southwest 446 513 38,000  Level New York Center
03:37PM 30.9536 -67.1669 235° Southwest 446 513 38,000  Level New York Center
03:38PM 30.8825 -67.2978 238° Southwest 446 513 38,000  Level New York Center
03:39PM 30.8089 -67.4139 234° Southwest 446 513 38,000  Level New York Center
03:40PM 30.7492 -67.5172 236° Southwest 446 513 38,000 60 Level New York Center
03:42PM 30.6101 -67.7255 239° Southwest  Level FlightAware Approximate
03:49PM 30.1818 -68.5409 239° Southwest  Level FlightAware Approximate
03:49PM 30.1167 -68.7000 238° Southwest 442 509 39,000  Level New York Oceanic (ODAPS)
03:50PM 30.1202 -68.6569 238° Southwest  Level FlightAware Approximate
03:51PM 30.0586 -68.7724 238° Southwest  Level FlightAware Approximate
03:52PM 29.9969 -68.8877 238° Southwest  Level FlightAware Approximate
03:53PM 29.9351 -69.0031 238° Southwest  Level FlightAware Approximate
03:54PM 29.8732 -69.1182 238° Southwest  Level FlightAware Approximate
03:55PM 29.8111 -69.2333 238° Southwest  Level FlightAware Approximate
03:56PM 29.7213 -69.4341 238° Southwest 442 509 39,000  Level FlightAware Transoceanic
03:57PM 29.6550 -69.5559 238° Southwest 442 509 39,000  Level FlightAware Transoceanic
03:58PM 29.5886 -69.6775 238° Southwest 442 509 39,000  Level FlightAware Transoceanic
03:59PM 29.5220 -69.7990 238° Southwest 442 509 39,000  Level FlightAware Transoceanic
04:00PM 29.4554 -69.9203 238° Southwest 442 509 39,000  Level FlightAware Transoceanic
04:01PM 29.3887 -70.0415 238° Southwest 442 509 39,000  Level FlightAware Transoceanic
04:02PM 29.3218 -70.1625 238° Southwest 442 509 39,000  Level FlightAware Transoceanic
04:03PM 29.2549 -70.2833 238° Southwest 442 509 39,000  Level FlightAware Transoceanic
04:03PM 29.2167 -70.4000 237° Southwest 443 510 39,000  Level New York Oceanic (ODAPS)
04:04PM 29.1878 -70.4040 237° Southwest 442 509 39,000  Level FlightAware Transoceanic
04:05PM 29.1206 -70.5245 237° Southwest 442 509 39,000  Level FlightAware Transoceanic
04:06PM 29.0534 -70.6448 237° Southwest 442 509 39,000  Level FlightAware Transoceanic
04:07PM 28.9860 -70.7650 237° Southwest 442 509 39,000  Level FlightAware Transoceanic
04:08PM 28.9185 -70.8851 237° Southwest 442 509 39,000  Level FlightAware Transoceanic
04:08PM 28.8833 -71.0000 237° Southwest 452 520 39,000  Level New York Oceanic (ODAPS)
04:09PM 28.8509 -71.0050 237° Southwest 442 509 39,000  Level FlightAware Transoceanic
04:10PM 28.8068 -71.1216 237° Southwest 443 510 39,000  Level FlightAware Transoceanic
04:11PM 28.7381 -71.2413 237° Southwest 443 510 39,000  Level FlightAware Transoceanic
04:12PM 28.6693 -71.3609 237° Southwest 443 510 39,000  Level FlightAware Transoceanic
04:13PM 28.6004 -71.4803 237° Southwest 443 510 39,000  Level FlightAware Transoceanic
04:14PM 28.5251 -71.6202 236° Southwest 452 520 39,000  Level FlightAware Transoceanic
04:15PM 28.4532 -71.7438 236° Southwest 452 520 39,000  Level FlightAware Transoceanic
04:16PM 28.3811 -71.8671 236° Southwest 452 520 39,000  Level FlightAware Transoceanic
04:16PM 28.3167 -71.9167 237° Southwest 460 529 39,000  Level New York Oceanic (ODAPS)
04:17PM 28.3089 -71.9903 236° Southwest 452 520 39,000  Level FlightAware Transoceanic
04:17PM 28.2500 -72.0500 237° Southwest 455 524 39,000  Level New York Oceanic (ODAPS)
04:18PM 28.2366 -72.1134 236° Southwest 452 520 39,000  Level FlightAware Transoceanic
04:19PM 28.1642 -72.2363 236° Southwest 452 520 39,000  Level FlightAware Transoceanic
04:20PM 28.0916 -72.3590 236° Southwest 452 520 39,000  Level FlightAware Transoceanic
04:21PM 28.0190 -72.4815 236° Southwest 452 520 39,000  Level FlightAware Transoceanic
04:22PM 27.9010 -72.6381 237° Southwest 460 529 39,000  Level FlightAware Transoceanic
04:23PM 27.8313 -72.7578 237° Southwest 460 529 39,000  Level FlightAware Transoceanic
04:24PM 27.7630 -72.8853 236° Southwest 455 524 39,000  Level FlightAware Transoceanic
04:25PM 27.6930 -73.0041 236° Southwest 455 524 39,000  Level FlightAware Transoceanic
04:26PM 27.6229 -73.1226 236° Southwest 455 524 39,000  Level FlightAware Transoceanic
04:27PM 27.5528 -73.2410 236° Southwest 455 524 39,000  Level FlightAware Transoceanic
04:28PM 27.4825 -73.3593 236° Southwest 455 524 39,000  Level FlightAware Transoceanic
04:29PM 27.4121 -73.4774 236° Southwest 455 524 39,000  Level FlightAware Transoceanic
04:30PM 27.3416 -73.5954 236° Southwest 455 524 39,000  Level FlightAware Transoceanic
04:31PM 27.2710 -73.7132 236° Southwest 455 524 39,000  Level FlightAware Transoceanic
04:31PM 27.2667 -73.7167 236° Southwest 449 517 39,000  Level New York Oceanic (ODAPS)
04:32PM 27.2004 -73.8308 236° Southwest 455 524 39,000  Level FlightAware Transoceanic
04:33PM 27.1296 -73.9483 236° Southwest 455 524 39,000  Level FlightAware Transoceanic
04:34PM 27.0587 -74.0657 236° Southwest 455 524 39,000  Level FlightAware Transoceanic
04:35PM 26.9877 -74.1829 236° Southwest 455 524 39,000  Level FlightAware Transoceanic
04:36PM 26.9167 -74.3000 237° Southwest 455 524 39,000  Level FlightAware Transoceanic
04:37PM 26.8487 -74.4156 237° Southwest 449 517 39,000  Level FlightAware Transoceanic
04:38PM 26.7807 -74.5311 237° Southwest 449 517 39,000  Level FlightAware Transoceanic
04:39PM 26.7126 -74.6464 237° Southwest 449 517 39,000  Level FlightAware Transoceanic
04:40PM 26.6444 -74.7617 236° Southwest 449 517 39,000  Level FlightAware Transoceanic
04:41PM 26.5762 -74.8767 236° Southwest 449 517 39,000  Level FlightAware Transoceanic
04:42PM 26.5078 -74.9917 236° Southwest 449 517 39,000  Level FlightAware Transoceanic
04:42PM 26.4864 -75.0292 236° Southwest 466 536 39,000  Level Miami Center
04:43PM 26.4393 -75.1064 236° Southwest 449 517 39,000  Level FlightAware Transoceanic
04:43PM 26.4189 -75.1533 239° Southwest 466 536 39,000  Level Miami Center
04:44PM 26.3707 -75.2211 236° Southwest 449 517 39,000  Level FlightAware Transoceanic
04:44PM 26.3556 -75.2747 240° Southwest 471 542 39,000  Level Miami Center
04:45PM 26.3021 -75.3356 236° Southwest 449 517 39,000  Level FlightAware Transoceanic
04:45PM 26.2900 -75.4008 240° Southwest 471 542 39,000  Level Miami Center
04:46PM 26.2367 -75.4445 236° Southwest  Level FlightAware Approximate
04:46PM 26.2244 -75.5244 239° Southwest 471 542 39,000  Level Miami Center
04:47PM 26.1712 -75.5532 236° Southwest  Level FlightAware Approximate
04:47PM 26.1544 -75.6456 237° Southwest 471 542 39,000  Level Miami Center
04:48PM 26.0928 -75.7711 241° Southwest 471 542 39,000  Level Miami Center
04:49PM 26.0267 -75.8919 239° Southwest 466 536 39,000 60 Level Miami Center
04:50PM 25.9669 -76.0219 243° Southwest 466 536 39,200 300 Climbing Miami Center
04:51PM 25.8967 -76.1450 238° Southwest 466 536 39,700 360 Climbing Miami Center
04:52PM 25.8325 -76.2653 239° Southwest 471 542 40,000 120 Climbing Miami Center
04:53PM 25.7681 -76.3881 240° Southwest 466 536 40,000  Level Miami Center
04:54PM 25.6931 -76.5175 237° Southwest 460 529 40,000  Level Miami Center
04:55PM 25.6308 -76.6397 241° Southwest 460 529 40,000  Level Miami Center
04:56PM 25.5639 -76.7619 239° Southwest 465 535 40,000  Level Miami Center
04:57PM 25.4992 -76.8842 240° Southwest 465 535 40,000  Level Miami Center
04:58PM 25.4344 -77.0061 240° Southwest 465 535 40,000  Level Miami Center
04:59PM 25.3694 -77.1256 239° Southwest 465 535 40,000  Level Miami Center
05:00PM 25.3022 -77.2494 239° Southwest 465 535 40,000  Level Miami Center
05:01PM 25.2392 -77.3689 240° Southwest 465 535 40,000  Level Miami Center
05:02PM 25.1844 -77.4811 242° Southwest 465 535 40,000  Level Miami Center
05:03PM 25.1108 -77.6047 237° Southwest 470 541 40,000  Level Miami Center
05:04PM 25.0433 -77.7258 238° Southwest 470 541 40,000  Level Miami Center
05:05PM 24.9778 -77.8447 239° Southwest 465 535 40,000  Level Miami Center
05:06PM 24.9100 -77.9656 238° Southwest 465 535 40,000  Level Miami Center
05:07PM 24.8442 -78.0842 239° Southwest 465 535 40,000  Level Miami Center
05:08PM 24.7764 -78.2025 238° Southwest 465 535 40,000 -360 Level Miami Center
05:09PM 24.7106 -78.3253 239° Southwest 465 535 39,300 -900 Descending Miami Center
05:10PM 24.6422 -78.4456 238° Southwest 465 535 38,300 -1,020 Descending Miami Center
05:11PM 24.5742 -78.5681 239° Southwest 465 535 37,300 -660 Descending Miami Center
05:12PM 24.5058 -78.6906 239° Southwest 470 541 37,000 -180 Descending Miami Center
05:13PM 24.4725 -78.8339 256° West 470 541 37,000  Level Miami Center
05:14PM 24.3647 -78.9369 221° Southwest 475 547 37,000  Level Miami Center
05:15PM 24.2961 -79.0589 238° Southwest 475 547 37,000  Level Miami Center
05:16PM 24.2211 -79.1808 236° Southwest 480 552 37,000  Level Miami Center
05:17PM 24.1586 -79.3003 240° Southwest 475 547 37,000  Level Miami Center
05:18PM 24.0833 -79.4286 237° Southwest 470 541 37,000  Level Miami Center
05:19PM 24.0225 -79.5525 242° Southwest 470 541 37,000  Level Miami Center
05:20PM 23.9867 -79.6858 254° West 464 534 37,000  Level Miami Center
05:22PM 23.8746 -79.8592 235° Southwest  Level FlightAware Approximate
05:29PM 23.4474 -80.6280 243° Southwest  Level FlightAware Approximate
05:30PM 23.3945 -80.7424 243° Southwest  Level FlightAware Approximate
05:31PM 23.3354 -80.8531 239° Southwest  Level FlightAware Approximate
05:32PM 23.2745 -80.9627 239° Southwest  Level FlightAware Approximate
05:33PM 23.2138 -81.0722 241° Southwest  Level FlightAware Approximate
05:34PM 23.1558 -81.1836 241° Southwest  Level FlightAware Approximate
05:35PM 23.0978 -81.2948 240° Southwest  Level FlightAware Approximate
05:36PM 23.0397 -81.4060 240° Southwest  Level FlightAware Approximate
05:37PM 23.0157 -81.5270 264° West  Level FlightAware Approximate
05:38PM 23.0042 -81.6542 264° West  Level FlightAware Approximate
05:39PM 23.0000 -81.7817 270° West  Level FlightAware Approximate
05:40PM 23.0000 -81.9095 270° West  Level FlightAware Approximate
05:41PM 22.9906 -82.0367 264° West  Level FlightAware Approximate
05:42PM 22.9833 -82.1641 270° West  Level FlightAware Approximate
05:43PM 22.9833 -82.2918 270° West  Level FlightAware Approximate
05:44PM 22.9667 -82.4000 260° West  Level FlightAware Approximate
05:45PM 22.9891 -82.4091 260° West  Level Estimated
05:46PM 22.9891 -82.4091 260° West  Level Estimated
05:47PM 22.9891 -82.4091 260° West  Level Estimated
05:48PM 22.9891 -82.4091 260° West  Level Estimated
05:49PM 22.9891 -82.4091 260° West  Level Estimated
05:50PM 22.9891 -82.4091 260° West  Level Estimated
05:51PM 22.9891 -82.4091 260° West  Level Estimated
05:52PM 22.9891 -82.4091 260° West  Level Estimated
05:53PM 22.9891 -82.4091 260° West  Level Estimated
05:54PM 22.9891 -82.4091 260° West  Level Estimated
05:55PM 22.9891 -82.4091 260° West  Level Estimated
05:56PM 22.9891 -82.4091 260° West  Level Estimated
05:57PM 22.9891 -82.4091 260° West  Level Estimated
05:58PM 22.9891 -82.4091 260° West  Level Estimated
05:59PM 22.9891 -82.4091 260° West  Level Estimated
06:00PM 22.9891 -82.4091 260° West  Level Estimated
06:01PM 22.9891 -82.4091 260° West  Level Estimated
06:02PM 22.9891 -82.4091 260° West  Level Estimated
06:03PM 22.9891 -82.4091 260° West  Level Estimated
06:04PM 22.9891 -82.4091 260° West  Level Estimated
06:05PM 22.9891 -82.4091 260° West  Level Estimated
06:06PM 22.9891 -82.4091 260° West  Level Estimated